»·PEaware :: N12529 KCMA-KSNA

N12529 :: KCMA-KSNA

FLIGHT INFORMATION

Flight Status: Arrived
Operator: Privately registered:
United States
More flights under this callsign
Pilot: Eduardo Elias G. (24838)
Aircraft: CESSNA 172 SKYHAWK
(C172)
More flights by this aircraft type
Origin: KCMA Camarillo
United States
Destination: KSNA John Wayne-Orange Co
United States
More flights between these airports :: More routes between these airports
Route: COASTAL ROUTE
File this flight plan on PilotEdge
Remarks: CAT-10 rating
Altitude:
(Current/Filed)
5,500ft
Speed:
(Current/Filed)
115kts
Departed: 30-Nov-19 10:23 PM
Arrived: 30-Nov-19 11:02 PM
Distance/Time
Traveled:
69nm/0:39
Distance/Time
To Go:
Arrived

Flight Plot

Page will automatically refresh every two minutes.


Map Options




Map Legend


Flown Route
Filed Route
Departure Airport
Arrival Airport
Navaid (VOR, NDB)
Fix

Horizontal Profiles

Position Reports

Time Latitude Longitude Heading Altitude Ground
Speed
30-Nov-19 22:06 34.210920 -119.096681 180 78ft 0kts
30-Nov-19 22:07 34.210920 -119.096681 180 78ft 0kts
30-Nov-19 22:08 34.210920 -119.096681 180 78ft 0kts
30-Nov-19 22:09 34.210920 -119.096681 180 78ft 0kts
30-Nov-19 22:10 34.210920 -119.096681 180 78ft 0kts
30-Nov-19 22:11 34.210920 -119.096681 180 78ft 0kts
30-Nov-19 22:12 34.210920 -119.096681 180 78ft 0kts
30-Nov-19 22:13 34.210920 -119.096681 180 78ft 0kts
30-Nov-19 22:14 34.210920 -119.096681 180 78ft 0kts
30-Nov-19 22:15 34.210915 -119.096681 180 78ft 0kts
30-Nov-19 22:16 34.210910 -119.096681 180 78ft 0kts
30-Nov-19 22:17 34.210904 -119.096681 180 78ft 0kts
30-Nov-19 22:18 34.210899 -119.096681 180 78ft 0kts
30-Nov-19 22:19 34.210820 -119.096639 128 78ft 2kts
30-Nov-19 22:20 34.211437 -119.099973 270 78ft 20kts
30-Nov-19 22:21 34.213231 -119.103921 358 78ft 0kts
30-Nov-19 22:22 34.213873 -119.097999 89 160ft 67kts
30-Nov-19 22:23 34.212515 -119.074870 92 1102ft 74kts
30-Nov-19 22:24 34.213315 -119.049137 91 2000ft 78kts
30-Nov-19 22:25 34.213470 -119.023952 95 2906ft 75kts
30-Nov-19 22:26 34.212972 -118.996528 96 3633ft 86kts
30-Nov-19 22:27 34.212482 -118.965903 96 4243ft 99kts
30-Nov-19 22:28 34.210843 -118.931646 98 4745ft 104kts
30-Nov-19 22:29 34.208844 -118.896412 98 5241ft 106kts
30-Nov-19 22:30 34.206202 -118.859312 98 5514ft 121kts
30-Nov-19 22:31 34.201812 -118.817520 100 5526ft 127kts
30-Nov-19 22:32 34.194618 -118.775423 105 5522ft 128kts
30-Nov-19 22:33 34.186331 -118.733395 105 5523ft 128kts
30-Nov-19 22:34 34.178056 -118.691423 105 5522ft 128kts
30-Nov-19 22:35 34.169814 -118.649536 105 5522ft 128kts
30-Nov-19 22:36 34.159412 -118.608697 125 5521ft 126kts
30-Nov-19 22:37 34.140225 -118.572939 125 5523ft 126kts
30-Nov-19 22:38 34.121263 -118.537773 125 5487ft 122kts
30-Nov-19 22:39 34.096332 -118.512377 158 5508ft 119kts
30-Nov-19 22:40 34.065604 -118.496851 158 5503ft 120kts
30-Nov-19 22:41 34.034832 -118.481237 158 5502ft 119kts
30-Nov-19 22:42 34.003889 -118.466234 159 5502ft 119kts
30-Nov-19 22:43 33.972735 -118.452021 160 5502ft 119kts
30-Nov-19 22:44 33.941667 -118.437625 156 5501ft 119kts
30-Nov-19 22:46 33.915450 -118.413982 130 5504ft 121kts
30-Nov-19 22:47 33.891304 -118.385416 139 5503ft 122kts
30-Nov-19 22:48 33.866003 -118.357877 138 5502ft 122kts
30-Nov-19 22:49 33.840541 -118.329931 139 5510ft 124kts
30-Nov-19 22:50 33.815008 -118.301759 139 5512ft 125kts
30-Nov-19 22:51 33.789303 -118.273414 139 5511ft 125kts
30-Nov-19 22:52 33.772139 -118.236608 106 5213ft 139kts
30-Nov-19 22:53 33.761919 -118.190707 106 4494ft 145kts
30-Nov-19 22:54 33.751493 -118.143687 106 3593ft 145kts
30-Nov-19 22:55 33.740867 -118.096574 106 2513ft 146kts
30-Nov-19 22:56 33.730158 -118.049428 106 1465ft 143kts
30-Nov-19 22:57 33.724479 -118.004511 95 1106ft 127kts
30-Nov-19 22:58 33.718548 -117.963168 101 1111ft 125kts
30-Nov-19 22:59 33.710586 -117.922482 104 1106ft 125kts
30-Nov-19 23:00 33.700166 -117.882047 114 823ft 119kts
30-Nov-19 23:01 33.683081 -117.864957 182 174ft 64kts
30-Nov-19 23:02 33.674495 -117.868549 142 59ft 5kts
30-Nov-19 23:03 33.672739 -117.865817 71 59ft 6kts
30-Nov-19 23:03 33.673003 -117.865404 28 59ft 0kts
30-Nov-19 23:05 33.673003 -117.865404 28 59ft 0kts
30-Nov-19 23:06 33.673003 -117.865404 28 59ft 0kts
30-Nov-19 23:07 33.673003 -117.865404 28 59ft 0kts

Navigation Log

Ident Type
Flight plan parsing failed, navigation log unavailable